Terminal Aerodrome Forecast
Issued by NWS

Home | Current Version | Previous Version | Text Only | Print | Product List | Glossary On
Versions: 1 2 3 4 5 6 7 8 9 10 11 12 13 14 15 16 17 18 19 20 21 22 23 24 25 26 27 28 29 30 31 32 33 34 35 36 37 38 39 40 41 42 43 44 45 46
741
FTUS45 KBOU 310624 AAA
TAFAPA
TAF AMD
KAPA 310624Z 3106/0106 18007KT P6SM SCT140 BKN220
     FM310730 36013G22KT P6SM SCT140 BKN220
     FM311000 02008KT P6SM SCT008 OVC014
     FM311500 14006KT P6SM BKN014 OVC030
     FM311800 08008KT P6SM SCT022 BKN035
     FM312200 04010KT P6SM SCT030 BKN060
      TEMPO 3123/0103 5SM SHRA OVC030
     FM010300 13007KT P6SM SCT025 BKN040 PROB30 0103/0106 -SHRA=

USA.gov is the U.S. government's official web portal to all federal, state and local government web resources and services.